Time;durP1;ratioP1;P1;durP2;ratioP2;P2;SDS_P1;SDS_P2;PMS_P1;PMS_P2;Temp;Humidity;BMP_temperature;BMP_pressure;BME280_temperature;BME280_humidity;BME280_pressure;Samples;Min_cycle;Max_cycle;Signal;HPM_P1;HPM_P2
2022/03/12 00:01:44;;;;;;;1.97;0.60;;;1.70;52.90;;;;;;5065611;28;20200;-60
2022/03/12 00:04:30;;;;;;;0.67;0.40;;;1.70;53.20;;;;;;5066044;28;20213;-52
2022/03/12 00:07:14;;;;;;;0.50;0.50;;;1.60;53.40;;;;;;5061333;28;20203;-53
2022/03/12 00:09:59;;;;;;;0.30;0.30;;;1.50;53.60;;;;;;5064118;28;20232;-57
2022/03/12 00:12:43;;;;;;;0.57;0.57;;;1.50;53.80;;;;;;5058036;28;20202;-61
2022/03/12 00:15:31;;;;;;;0.97;0.50;;;1.40;54.30;;;;;;5067473;28;20242;-60
2022/03/12 00:18:19;;;;;;;1.50;0.57;;;1.30;54.60;;;;;;5055863;28;20281;-60
2022/03/12 00:21:04;;;;;;;9.70;4.73;;;1.20;54.90;;;;;;5063011;28;20193;-58
2022/03/12 00:23:49;;;;;;;4.60;1.47;;;1.00;56.60;;;;;;5063841;28;20212;-60
2022/03/12 00:26:33;;;;;;;1.03;1.00;;;1.00;58.40;;;;;;5056735;28;20193;-51
2022/03/12 00:29:20;;;;;;;1.57;1.00;;;1.00;58.60;;;;;;5057735;28;20271;-52
2022/03/12 00:32:06;;;;;;;2.20;1.10;;;0.80;58.80;;;;;;5058452;28;20232;-57
2022/03/12 00:34:50;;;;;;;2.53;0.93;;;0.70;59.00;;;;;;5069576;28;20193;-56
2022/03/12 00:37:35;;;;;;;0.60;0.60;;;0.70;59.30;;;;;;5075284;28;20271;-59
2022/03/12 00:40:20;;;;;;;3.97;1.23;;;0.70;59.50;;;;;;5072081;28;20664;-57
2022/03/12 00:43:05;;;;;;;1.60;0.90;;;0.70;59.40;;;;;;5068403;28;20235;-60
2022/03/12 00:45:49;;;;;;;0.70;0.70;;;0.60;59.50;;;;;;5067957;28;20204;-53
2022/03/12 00:48:34;;;;;;;0.43;0.43;;;0.50;60.20;;;;;;5063895;28;20266;-57
2022/03/12 00:51:18;;;;;;;22.67;10.87;;;0.40;60.00;;;;;;5067779;28;20303;-52
2022/03/12 00:54:02;;;;;;;5.53;2.40;;;0.50;61.50;;;;;;5067739;28;20205;-59
2022/03/12 00:56:47;;;;;;;4.07;0.93;;;0.50;60.80;;;;;;5061961;28;20193;-49
2022/03/12 00:59:32;;;;;;;2.00;1.53;;;0.40;60.50;;;;;;5066290;28;20204;-52
2022/03/12 01:02:18;;;;;;;0.33;0.33;;;0.30;60.60;;;;;;5064917;28;20235;-58
2022/03/12 01:05:03;;;;;;;0.73;0.73;;;0.30;60.90;;;;;;5064298;28;20185;-58
2022/03/12 01:07:48;;;;;;;1.30;0.53;;;0.20;61.10;;;;;;5068391;28;20327;-58
2022/03/12 01:10:33;;;;;;;0.60;0.60;;;0.00;61.20;;;;;;5064249;28;20252;-57
2022/03/12 01:13:18;;;;;;;1.97;1.10;;;-0.10;61.30;;;;;;5065685;28;20274;-60
2022/03/12 01:16:04;;;;;;;1.33;1.33;;;0.00;62.10;;;;;;5070003;28;20281;-52
2022/03/12 01:18:49;;;;;;;6.87;1.20;;;-0.10;61.80;;;;;;5065604;28;20196;-58
2022/03/12 01:21:33;;;;;;;1.57;0.83;;;-0.20;62.10;;;;;;5069408;28;20327;-50
2022/03/12 01:24:17;;;;;;;0.30;0.30;;;-0.20;62.40;;;;;;5069708;28;20205;-59
2022/03/12 01:27:02;;;;;;;1.20;1.00;;;-0.20;62.70;;;;;;5067761;28;20302;-52
2022/03/12 01:29:46;;;;;;;0.60;0.60;;;-0.30;62.90;;;;;;5073719;28;20196;-51
2022/03/12 01:32:31;;;;;;;0.77;0.70;;;-0.30;63.20;;;;;;5071122;28;20193;-60
2022/03/12 01:35:15;;;;;;;0.77;0.77;;;-0.30;63.10;;;;;;5069497;28;20212;-47
2022/03/12 01:38:01;;;;;;;2.27;0.90;;;-0.30;63.40;;;;;;5073453;28;20221;-56
2022/03/12 01:40:45;;;;;;;1.27;1.03;;;-0.30;63.30;;;;;;5068828;28;20197;-61
2022/03/12 01:43:36;;;;;;;3.73;0.93;;;-0.40;63.00;;;;;;5071480;28;20232;-55
2022/03/12 01:46:34;;;;;;;2.97;0.67;;;-0.50;63.40;;;;;;5073685;28;20285;-57
2022/03/12 01:49:23;;;;;;;0.70;0.70;;;-0.50;63.10;;;;;;5069672;28;20294;-52
2022/03/12 01:52:07;;;;;;;4.13;0.57;;;-0.50;63.30;;;;;;5070877;28;20281;-58
2022/03/12 01:54:52;;;;;;;1.90;1.23;;;-0.50;63.20;;;;;;5072978;28;20244;-56
2022/03/12 01:57:36;;;;;;;2.20;1.00;;;-0.40;63.20;;;;;;5069801;28;20284;-50
2022/03/12 02:00:26;;;;;;;0.87;0.87;;;-0.50;63.10;;;;;;5072655;28;20243;-52
2022/03/12 02:03:12;;;;;;;0.77;0.47;;;-0.50;62.60;;;;;;5072993;28;20247;-53
2022/03/12 02:05:56;;;;;;;0.93;0.87;;;-0.50;62.60;;;;;;5068366;28;20211;-49
2022/03/12 02:08:41;;;;;;;0.80;0.80;;;-0.70;62.50;;;;;;5072792;28;20193;-56
2022/03/12 02:11:27;;;;;;;3.37;1.20;;;-0.70;62.60;;;;;;5071004;28;20286;-51
2022/03/12 02:14:15;;;;;;;2.63;1.30;;;-0.70;62.40;;;;;;5068618;28;20250;-59
2022/03/12 02:17:07;;;;;;;0.60;0.60;;;-0.70;62.50;;;;;;5072969;28;20196;-54
2022/03/12 02:19:51;;;;;;;1.43;1.10;;;-0.80;62.60;;;;;;5069486;28;20193;-59
2022/03/12 02:22:35;;;;;;;2.47;1.47;;;-0.80;62.70;;;;;;5069617;28;20196;-58
2022/03/12 02:25:31;;;;;;;2.67;1.43;;;-0.80;63.10;;;;;;5072522;28;20205;-53
2022/03/12 02:28:18;;;;;;;0.50;0.50;;;-0.90;63.40;;;;;;5068603;28;20204;-53
2022/03/12 02:31:05;;;;;;;0.77;0.63;;;-0.90;63.70;;;;;;5070608;28;20274;-51
2022/03/12 02:33:49;;;;;;;2.47;1.20;;;-0.90;64.20;;;;;;5071473;28;20311;-51
2022/03/12 02:36:34;;;;;;;0.90;0.80;;;-0.90;64.50;;;;;;5067456;28;20232;-62
2022/03/12 02:39:20;;;;;;;1.50;1.40;;;-1.00;64.40;;;;;;5051330;28;20279;-49
2022/03/12 02:42:06;;;;;;;0.73;0.73;;;-1.00;64.40;;;;;;5051014;28;20197;-59
2022/03/12 02:44:51;;;;;;;0.90;0.87;;;-0.90;64.40;;;;;;5046984;28;20197;-59
2022/03/12 02:47:40;;;;;;;0.33;0.33;;;-1.00;63.80;;;;;;5052211;28;20255;-53
2022/03/12 02:50:25;;;;;;;1.23;1.13;;;-0.90;64.00;;;;;;5050644;28;20228;-62
2022/03/12 02:53:10;;;;;;;6.13;1.10;;;-1.00;63.70;;;;;;5048389;28;20251;-51
2022/03/12 02:55:54;;;;;;;0.57;0.57;;;-1.00;63.70;;;;;;5051418;28;20194;-55
2022/03/12 02:58:38;;;;;;;1.70;0.90;;;-1.10;63.80;;;;;;5049149;28;20339;-57
2022/03/12 03:01:23;;;;;;;0.60;0.60;;;-1.00;64.10;;;;;;5049409;28;20190;-56
2022/03/12 03:04:07;;;;;;;0.33;0.33;;;-1.00;64.30;;;;;;5051643;28;20194;-51
2022/03/12 03:06:52;;;;;;;0.83;0.83;;;-1.00;64.70;;;;;;5047802;28;20220;-55
2022/03/12 03:09:38;;;;;;;0.90;0.37;;;-1.10;64.70;;;;;;5050906;28;20198;-58
2022/03/12 03:12:23;;;;;;;0.40;0.40;;;-1.10;65.00;;;;;;5051504;28;20200;-60
2022/03/12 03:15:08;;;;;;;1.13;0.80;;;-1.10;65.20;;;;;;5047304;28;20190;-60
2022/03/12 03:17:53;;;;;;;0.57;0.57;;;-1.10;65.20;;;;;;5051127;28;20297;-54
2022/03/12 03:20:37;;;;;;;0.70;0.70;;;-1.20;65.30;;;;;;5049909;28;20201;-62
2022/03/12 03:23:24;;;;;;;0.97;0.80;;;-1.30;65.80;;;;;;5047575;28;20243;-56
2022/03/12 03:26:08;;;;;;;1.33;1.23;;;-1.30;66.10;;;;;;5051048;28;20192;-56
2022/03/12 03:28:53;;;;;;;0.97;0.97;;;-1.30;66.40;;;;;;5048603;28;20209;-57
2022/03/12 03:31:36;;;;;;;0.40;0.40;;;-1.30;66.50;;;;;;5048069;28;20276;-50
2022/03/12 03:34:22;;;;;;;4.63;1.30;;;-1.40;66.70;;;;;;5050802;28;20318;-56
2022/03/12 03:37:08;;;;;;;1.17;1.17;;;-1.40;66.60;;;;;;5046462;28;20298;-52
2022/03/12 03:39:52;;;;;;;1.03;1.00;;;-1.30;66.70;;;;;;5049788;28;20248;-52
2022/03/12 03:42:37;;;;;;;0.77;0.77;;;-1.30;66.40;;;;;;5050935;28;20236;-55
2022/03/12 03:45:24;;;;;;;1.00;1.00;;;-1.40;65.90;;;;;;5046835;28;20252;-54
2022/03/12 03:48:16;;;;;;;0.57;0.57;;;-1.40;66.00;;;;;;5050775;28;20232;-56
2022/03/12 03:51:01;;;;;;;0.73;0.73;;;-1.40;65.90;;;;;;5049857;28;20216;-60
2022/03/12 03:53:46;;;;;;;0.67;0.67;;;-1.30;65.70;;;;;;5046759;28;20209;-50
2022/03/12 03:56:31;;;;;;;0.90;0.90;;;-1.40;65.50;;;;;;5051204;28;20193;-53
2022/03/12 03:59:15;;;;;;;0.60;0.50;;;-1.40;65.80;;;;;;5048513;28;20198;-60
2022/03/12 04:02:00;;;;;;;2.73;1.00;;;-1.50;66.10;;;;;;5047560;28;20304;-53
2022/03/12 04:04:48;;;;;;;2.20;0.73;;;-1.40;66.00;;;;;;5050710;28;20236;-52
2022/03/12 04:07:32;;;;;;;0.97;0.97;;;-1.40;65.60;;;;;;5046611;28;20190;-54
2022/03/12 04:10:16;;;;;;;0.87;0.87;;;-1.40;65.20;;;;;;5048896;28;20335;-53
2022/03/12 04:13:01;;;;;;;1.13;0.90;;;-1.40;65.30;;;;;;5050549;28;20209;-53
2022/03/12 04:15:47;;;;;;;1.30;0.93;;;-1.40;65.20;;;;;;5046745;28;20197;-48
2022/03/12 04:18:32;;;;;;;0.77;0.73;;;-1.40;65.10;;;;;;5050801;28;20247;-52
2022/03/12 04:21:20;;;;;;;0.20;0.20;;;-1.50;65.30;;;;;;5050691;28;20189;-57
2022/03/12 04:24:05;;;;;;;1.73;0.33;;;-1.50;65.70;;;;;;5047171;28;20198;-58
2022/03/12 04:26:50;;;;;;;0.80;0.57;;;-1.50;65.60;;;;;;5051106;28;20245;-51
2022/03/12 04:29:35;;;;;;;1.27;0.93;;;-1.50;65.50;;;;;;5049957;28;20247;-53
2022/03/12 04:32:20;;;;;;;0.60;0.60;;;-1.50;65.70;;;;;;5047243;28;20251;-51
2022/03/12 04:35:05;;;;;;;2.43;0.40;;;-1.40;66.80;;;;;;5050780;28;20194;-49
2022/03/12 04:37:49;;;;;;;0.87;0.43;;;-1.50;66.10;;;;;;5047440;28;20245;-62
2022/03/12 04:40:33;;;;;;;0.73;0.73;;;-1.40;66.30;;;;;;5049413;28;20250;-52
2022/03/12 04:43:18;;;;;;;0.83;0.60;;;-1.50;66.30;;;;;;5051054;28;20268;-59
2022/03/12 04:46:03;;;;;;;0.80;0.80;;;-1.40;66.50;;;;;;5047476;28;20206;-46
2022/03/12 04:48:48;;;;;;;1.97;1.20;;;-1.50;66.50;;;;;;5050834;28;20221;-49
2022/03/12 04:51:33;;;;;;;0.87;0.83;;;-1.50;66.70;;;;;;5050119;28;20228;-53
2022/03/12 04:54:17;;;;;;;2.40;0.67;;;-1.60;66.60;;;;;;5046951;28;20194;-56
2022/03/12 04:57:02;;;;;;;1.43;1.33;;;-1.50;66.20;;;;;;5051068;28;20197;-51
2022/03/12 04:59:47;;;;;;;0.60;0.60;;;-1.50;65.80;;;;;;5049147;28;20281;-60
2022/03/12 05:02:32;;;;;;;0.30;0.30;;;-1.50;66.00;;;;;;5050958;28;20212;-58
2022/03/12 05:05:16;;;;;;;2.93;0.80;;;-1.50;66.10;;;;;;5053888;28;20201;-54
2022/03/12 05:08:01;;;;;;;1.97;0.97;;;-1.50;66.30;;;;;;5049901;28;20197;-56
2022/03/12 05:10:51;;;;;;;1.03;1.00;;;-1.50;66.30;;;;;;5051983;28;20236;-57
2022/03/12 05:13:35;;;;;;;0.50;0.43;;;-1.50;66.20;;;;;;5053769;28;20206;-53
2022/03/12 05:16:19;;;;;;;0.93;0.93;;;-1.50;66.30;;;;;;5050765;28;20194;-47
2022/03/12 05:19:06;;;;;;;1.13;0.87;;;-1.60;65.90;;;;;;5053649;28;20237;-52
2022/03/12 05:21:50;;;;;;;0.40;0.40;;;-1.50;65.90;;;;;;5055819;28;20259;-63
2022/03/12 05:24:35;;;;;;;1.17;1.17;;;-1.50;66.50;;;;;;5067426;28;20270;-53
2022/03/12 05:27:20;;;;;;;0.67;0.67;;;-1.50;66.60;;;;;;5072210;28;20197;-57
2022/03/12 05:30:05;;;;;;;0.20;0.20;;;-1.40;66.20;;;;;;5072048;28;20185;-61
2022/03/12 05:32:50;;;;;;;0.97;0.83;;;-1.50;66.30;;;;;;5076214;28;20517;-50
2022/03/12 05:35:41;;;;;;;0.70;0.70;;;-1.40;66.40;;;;;;5073376;28;20228;-56
2022/03/12 05:38:29;;;;;;;1.83;1.10;;;-1.40;66.40;;;;;;5069702;28;20235;-56
2022/03/12 05:41:14;;;;;;;0.77;0.50;;;-1.50;65.80;;;;;;5077486;28;20197;-53
2022/03/12 05:43:59;;;;;;;0.50;0.50;;;-1.50;66.10;;;;;;5070435;28;20181;-54
2022/03/12 05:46:44;;;;;;;0.90;0.87;;;-1.40;66.30;;;;;;5065426;28;20216;-61
2022/03/12 05:49:29;;;;;;;0.87;0.87;;;-1.40;66.10;;;;;;5070166;28;20189;-54
2022/03/12 05:52:14;;;;;;;2.10;0.90;;;-1.40;66.10;;;;;;5068671;28;20379;-54
2022/03/12 05:54:58;;;;;;;3.33;1.30;;;-1.50;66.30;;;;;;5065976;28;20270;-57
2022/03/12 05:57:44;;;;;;;1.50;1.27;;;-1.40;66.30;;;;;;5070591;28;20192;-49
2022/03/12 06:00:28;;;;;;;0.87;0.87;;;-1.50;66.80;;;;;;5070389;28;20238;-56
2022/03/12 06:03:13;;;;;;;0.40;0.40;;;-1.30;66.90;;;;;;5067242;28;20189;-54
2022/03/12 06:05:59;;;;;;;2.20;1.33;;;-1.20;66.70;;;;;;5069396;28;20200;-53
2022/03/12 06:08:43;;;;;;;4.13;1.77;;;-1.20;67.00;;;;;;5067364;28;20200;-61
2022/03/12 06:11:32;;;;;;;0.40;0.40;;;-1.10;66.90;;;;;;5068008;28;20213;-53
2022/03/12 06:14:16;;;;;;;1.20;0.50;;;-1.00;66.70;;;;;;5070872;28;20234;-54
2022/03/12 06:17:01;;;;;;;2.10;0.97;;;-1.00;66.20;;;;;;5066247;28;20295;-60
2022/03/12 06:19:46;;;;;;;0.50;0.50;;;-0.90;66.20;;;;;;5069190;28;20196;-58
2022/03/12 06:22:30;;;;;;;0.97;0.43;;;-1.00;66.00;;;;;;5071033;28;20224;-61
2022/03/12 06:25:16;;;;;;;0.70;0.70;;;-1.00;65.70;;;;;;5063801;28;20326;-53
2022/03/12 06:28:03;;;;;;;2.03;0.63;;;-0.80;65.80;;;;;;5069095;28;20193;-54
2022/03/12 06:30:48;;;;;;;1.70;0.97;;;-0.70;65.40;;;;;;5069627;28;20224;-56
2022/03/12 06:33:34;;;;;;;0.60;0.40;;;-0.60;65.20;;;;;;5066107;28;20247;-58
2022/03/12 06:36:19;;;;;;;1.23;1.13;;;-0.60;65.10;;;;;;5068768;28;20212;-52
2022/03/12 06:39:05;;;;;;;2.17;0.80;;;-0.60;65.10;;;;;;5067659;28;20196;-58
2022/03/12 06:41:51;;;;;;;3.00;1.27;;;-0.50;65.70;;;;;;5066221;28;20257;-57
2022/03/12 06:44:37;;;;;;;1.93;1.30;;;-0.50;64.30;;;;;;5068052;28;20224;-56
2022/03/12 06:47:28;;;;;;;3.20;1.40;;;-0.30;64.40;;;;;;5065855;28;20192;-54
2022/03/12 06:50:17;;;;;;;1.23;1.23;;;-0.20;64.50;;;;;;5065776;28;20309;-52
2022/03/12 06:53:02;;;;;;;0.30;0.30;;;-0.20;64.00;;;;;;5069320;28;20251;-51
2022/03/12 06:55:46;;;;;;;0.27;0.27;;;-0.10;63.40;;;;;;5065265;28;20197;-52
2022/03/12 06:58:31;;;;;;;0.83;0.63;;;0.10;63.20;;;;;;5069883;28;20188;-51
2022/03/12 07:01:15;;;;;;;1.27;1.23;;;0.20;63.10;;;;;;5064550;28;20193;-61
2022/03/12 07:03:59;;;;;;;1.57;0.80;;;0.40;63.40;;;;;;5064075;28;20193;-54
2022/03/12 07:06:44;;;;;;;1.27;1.20;;;0.40;63.00;;;;;;5069373;28;20255;-57
2022/03/12 07:09:29;;;;;;;0.80;0.80;;;0.40;63.00;;;;;;5068117;28;20193;-55
2022/03/12 07:12:13;;;;;;;0.97;0.63;;;0.60;63.10;;;;;;5065953;28;20248;-53
2022/03/12 07:14:57;;;;;;;2.13;0.43;;;0.80;62.90;;;;;;5067973;28;20200;-60
2022/03/12 07:17:42;;;;;;;1.70;0.77;;;0.90;62.50;;;;;;5065686;28;20193;-53
2022/03/12 07:20:27;;;;;;;0.80;0.80;;;1.00;62.20;;;;;;5067120;28;20261;-54
2022/03/12 07:23:11;;;;;;;1.17;0.90;;;1.20;61.50;;;;;;5069221;28;20189;-54
2022/03/12 07:25:56;;;;;;;0.90;0.90;;;1.40;60.90;;;;;;5071052;28;20324;-55
2022/03/12 07:28:41;;;;;;;0.63;0.63;;;1.50;59.90;;;;;;5078874;28;20228;-53
2022/03/12 07:31:25;;;;;;;0.70;0.70;;;1.70;59.40;;;;;;5068902;28;20224;-55
2022/03/12 07:34:10;;;;;;;0.90;0.60;;;1.90;58.50;;;;;;5071941;28;20200;-54
2022/03/12 07:36:54;;;;;;;0.80;0.80;;;2.00;58.00;;;;;;5071068;28;20251;-48
2022/03/12 07:39:40;;;;;;;0.53;0.53;;;2.20;60.80;;;;;;5070355;28;20193;-48
2022/03/12 07:42:24;;;;;;;0.63;0.60;;;2.40;62.90;;;;;;5067781;28;20197;-48
2022/03/12 07:45:10;;;;;;;0.60;0.60;;;2.50;58.40;;;;;;5071140;28;20258;-56
2022/03/12 07:47:55;;;;;;;1.00;1.00;;;2.50;55.70;;;;;;5068975;28;20281;-57
2022/03/12 07:50:39;;;;;;;2.47;1.20;;;2.60;55.70;;;;;;5068154;28;20224;-53
2022/03/12 07:53:24;;;;;;;4.53;0.50;;;2.70;55.40;;;;;;5071005;28;20197;-53
2022/03/12 07:56:09;;;;;;;0.63;0.63;;;2.80;54.20;;;;;;5066438;28;20197;-62
2022/03/12 07:58:55;;;;;;;2.30;1.13;;;2.80;53.60;;;;;;5069838;28;20219;-49
2022/03/12 08:01:39;;;;;;;1.50;0.97;;;2.80;53.50;;;;;;5068964;28;20201;-48
2022/03/12 08:04:23;;;;;;;1.27;0.50;;;2.90;53.20;;;;;;5086809;28;20207;-47
2022/03/12 08:07:07;;;;;;;0.63;0.63;;;3.10;53.30;;;;;;5091178;28;20192;-50
2022/03/12 08:09:56;;;;;;;1.47;0.97;;;3.10;52.20;;;;;;5085924;28;20199;-57
2022/03/12 08:12:41;;;;;;;0.40;0.40;;;3.10;52.60;;;;;;5075220;28;20269;-52
2022/03/12 08:15:26;;;;;;;2.20;0.87;;;3.20;52.30;;;;;;5082302;28;20196;-56
2022/03/12 08:18:11;;;;;;;0.53;0.53;;;3.30;52.90;;;;;;5074256;28;20282;-55
2022/03/12 08:20:56;;;;;;;0.70;0.70;;;3.40;52.60;;;;;;5067542;28;20285;-53
2022/03/12 08:23:40;;;;;;;0.70;0.60;;;3.70;52.80;;;;;;5070719;28;20277;-54
2022/03/12 08:26:26;;;;;;;1.77;1.13;;;3.70;52.00;;;;;;5066230;28;20208;-63
2022/03/12 08:29:13;;;;;;;1.90;0.60;;;3.80;51.60;;;;;;5068108;28;20184;-48
2022/03/12 08:31:57;;;;;;;0.93;0.50;;;3.80;51.20;;;;;;5069472;28;20332;-56
2022/03/12 08:34:43;;;;;;;0.60;0.60;;;4.00;51.40;;;;;;5064119;28;20201;-51
2022/03/12 08:37:28;;;;;;;2.00;1.10;;;4.10;50.70;;;;;;5071982;28;20365;-65
2022/03/12 08:43:53;;;;;;;0.67;0.50;;;4.50;50.70;;;;;;5085358;28;20185;-61
2022/03/12 08:46:42;;;;;;;0.80;0.80;;;4.60;49.10;;;;;;5075480;28;20243;-51
2022/03/12 08:49:27;;;;;;;1.83;0.40;;;4.80;48.60;;;;;;5079448;28;20193;-53
2022/03/12 08:52:12;;;;;;;0.87;0.87;;;5.00;48.30;;;;;;5076436;28;20226;-53
2022/03/12 08:54:56;;;;;;;1.43;0.97;;;5.10;48.10;;;;;;5093405;28;20234;-54
2022/03/12 08:57:42;;;;;;;1.67;0.57;;;5.30;47.40;;;;;;5093156;28;20223;-53
2022/03/12 09:00:26;;;;;;;1.40;1.00;;;5.50;47.40;;;;;;5084864;28;20193;-50
2022/03/12 09:03:14;;;;;;;0.53;0.53;;;5.50;46.60;;;;;;5072988;28;20271;-52
2022/03/12 09:05:59;;;;;;;1.17;1.07;;;5.70;46.90;;;;;;5076224;28;20192;-58
2022/03/12 09:08:45;;;;;;;0.93;0.70;;;5.80;46.10;;;;;;5075228;28;20177;-53
2022/03/12 09:11:29;;;;;;;1.43;0.77;;;6.00;46.10;;;;;;5079311;28;20253;-56
2022/03/12 09:14:13;;;;;;;1.17;0.73;;;6.10;46.00;;;;;;5074259;28;20184;-65
2022/03/12 09:16:58;;;;;;;1.37;0.70;;;6.50;45.90;;;;;;5079161;28;20242;-51
2022/03/12 09:19:42;;;;;;;0.63;0.63;;;6.60;46.00;;;;;;5081551;28;20273;-53
2022/03/12 09:22:26;;;;;;;0.70;0.70;;;6.80;46.10;;;;;;5089528;28;20241;-52
2022/03/12 09:25:12;;;;;;;1.20;1.10;;;7.10;44.80;;;;;;5092256;28;20248;-52
2022/03/12 09:27:58;;;;;;;2.00;0.67;;;7.50;45.20;;;;;;5093120;28;20200;-57
2022/03/12 09:30:42;;;;;;;1.10;0.93;;;7.80;45.10;;;;;;5089220;28;20305;-50
2022/03/12 09:33:27;;;;;;;0.73;0.73;;;8.10;44.30;;;;;;5093810;28;20196;-61
2022/03/12 09:36:11;;;;;;;1.00;0.83;;;8.40;43.80;;;;;;5091579;28;20203;-50
2022/03/12 09:38:56;;;;;;;1.10;1.03;;;8.30;43.50;;;;;;5090489;28;20288;-57
2022/03/12 09:41:41;;;;;;;0.83;0.83;;;8.30;43.30;;;;;;5093374;28;20193;-53
2022/03/12 09:44:26;;;;;;;0.80;0.80;;;8.70;43.40;;;;;;5089860;28;20188;-60
2022/03/12 09:47:11;;;;;;;2.27;1.00;;;8.70;43.30;;;;;;5091655;28;20199;-58
2022/03/12 09:49:55;;;;;;;1.40;0.97;;;8.60;43.40;;;;;;5093530;28;20242;-55
2022/03/12 09:52:40;;;;;;;0.90;0.90;;;8.50;43.60;;;;;;5089978;28;20265;-62
2022/03/12 09:55:25;;;;;;;1.43;1.17;;;8.70;43.30;;;;;;5093159;28;20214;-59
2022/03/12 09:58:09;;;;;;;1.00;0.90;;;9.00;42.80;;;;;;5092922;28;20231;-57
2022/03/12 10:00:54;;;;;;;1.57;0.90;;;9.30;42.60;;;;;;5088528;28;20294;-64
2022/03/12 10:03:38;;;;;;;0.70;0.70;;;9.40;42.20;;;;;;5092913;28;20188;-57
2022/03/12 10:06:23;;;;;;;2.07;1.20;;;9.90;41.50;;;;;;5090841;28;20223;-63
2022/03/12 10:09:08;;;;;;;1.43;1.27;;;10.20;42.10;;;;;;5089866;28;20212;-60
2022/03/12 10:11:54;;;;;;;1.00;1.00;;;10.30;41.10;;;;;;5092501;28;20277;-54
2022/03/12 10:14:38;;;;;;;1.93;1.40;;;9.80;41.50;;;;;;5089007;28;20204;-64
2022/03/12 10:17:22;;;;;;;1.20;1.13;;;9.70;41.60;;;;;;5091296;28;20199;-52
2022/03/12 10:20:10;;;;;;;1.20;1.10;;;10.10;42.00;;;;;;5092606;28;20192;-57
2022/03/12 10:22:55;;;;;;;1.90;1.23;;;10.50;41.80;;;;;;5088652;28;20201;-57
2022/03/12 10:25:40;;;;;;;1.00;1.00;;;11.00;41.50;;;;;;5092532;28;20211;-53
2022/03/12 10:28:25;;;;;;;1.20;1.10;;;11.20;40.80;;;;;;5092273;28;20190;-58
2022/03/12 10:31:11;;;;;;;3.73;1.00;;;11.30;40.40;;;;;;5088962;28;20288;-52
2022/03/12 10:34:26;;;;;;;2.33;1.17;;;11.30;40.50;;;;;;5092826;28;20214;-52
2022/03/12 10:37:10;;;;;;;2.67;1.47;;;11.90;40.20;;;;;;5011261;28;20284;-47
2022/03/12 10:40:03;;;;;;;1.27;1.17;;;11.80;39.70;;;;;;5006612;28;20254;-49
2022/03/12 10:43:01;;;;;;;3.20;1.20;;;12.60;39.20;;;;;;5011119;28;20195;-55
2022/03/12 10:45:47;;;;;;;2.00;1.73;;;12.80;39.20;;;;;;5011315;28;20203;-57
2022/03/12 10:48:38;;;;;;;1.73;1.53;;;11.90;38.80;;;;;;5006948;28;20198;-52
2022/03/12 10:51:35;;;;;;;28.37;11.93;;;11.90;39.20;;;;;;5011118;28;20218;-56
2022/03/12 10:54:20;;;;;;;2.50;2.17;;;12.80;39.10;;;;;;5024552;28;20203;-50
2022/03/12 10:57:05;;;;;;;5.03;3.63;;;13.00;38.00;;;;;;5006896;28;20231;-53
2022/03/12 10:59:54;;;;;;;2.73;2.17;;;13.70;38.40;;;;;;5010243;28;20223;-51
2022/03/12 11:02:38;;;;;;;5.47;2.47;;;13.10;37.40;;;;;;5009405;28;20211;-57
2022/03/12 11:05:35;;;;;;;2.90;2.23;;;13.50;37.20;;;;;;5006498;28;20191;-57
2022/03/12 11:08:27;;;;;;;3.83;2.80;;;13.70;37.10;;;;;;5010810;28;20283;-51
2022/03/12 11:11:13;;;;;;;3.05;2.65;;;15.10;36.40;;;;;;5008603;28;20238;-64
2022/03/12 11:13:58;;;;;;;3.77;2.13;;;15.10;35.70;;;;;;5069023;28;20192;-57
2022/03/12 11:16:49;;;;;;;2.93;2.10;;;14.70;36.10;;;;;;5091882;28;20248;-57
2022/03/12 11:19:40;;;;;;;1.50;1.40;;;13.50;37.50;;;;;;5089155;28;20215;-53
2022/03/12 11:22:25;;;;;;;4.40;1.60;;;14.10;36.20;;;;;;5088456;28;20192;-47
2022/03/12 11:25:12;;;;;;;4.90;2.10;;;14.10;37.60;;;;;;5091606;28;20224;-51
2022/03/12 11:28:02;;;;;;;4.40;2.50;;;14.80;36.60;;;;;;5087612;28;20231;-51
2022/03/12 11:30:47;;;;;;;1.70;1.60;;;14.20;36.60;;;;;;5089410;28;20228;-56
2022/03/12 11:33:31;;;;;;;2.85;1.63;;;14.70;36.50;;;;;;5092234;28;20199;-53
2022/03/12 11:36:15;;;;;;;1.70;1.60;;;14.90;35.80;;;;;;5087119;28;20191;-52
2022/03/12 11:39:00;;;;;;;2.53;1.40;;;14.90;36.30;;;;;;5091076;28;20380;-52
2022/03/12 11:42:13;;;;;;;1.87;1.60;;;15.10;36.20;;;;;;5090714;28;20265;-59
2022/03/12 11:44:59;;;;;;;1.90;1.80;;;14.50;35.60;;;;;;5087005;28;20242;-53
2022/03/12 11:47:45;;;;;;;2.77;1.40;;;13.40;37.30;;;;;;5091278;28;20205;-57
2022/03/12 11:50:30;;;;;;;2.70;1.90;;;12.20;38.80;;;;;;5091101;28;20268;-57
2022/03/12 11:53:17;;;;;;;4.93;2.50;;;11.50;39.40;;;;;;5086556;28;20220;-58
2022/03/12 11:56:02;;;;;;;1.33;1.17;;;11.20;40.10;;;;;;5091242;28;20209;-53
2022/03/12 11:58:47;;;;;;;2.47;1.10;;;10.70;40.50;;;;;;5089776;28;20219;-64
2022/03/12 12:01:35;;;;;;;1.83;1.50;;;10.50;41.10;;;;;;5086611;28;20481;-62
2022/03/12 12:04:20;;;;;;;1.37;1.27;;;10.40;41.10;;;;;;5090958;28;20208;-55
2022/03/12 12:07:04;;;;;;;1.90;1.07;;;10.50;41.60;;;;;;5087532;28;20199;-54
2022/03/12 12:09:48;;;;;;;0.83;0.83;;;10.50;40.90;;;;;;5087336;28;20193;-53
2022/03/12 12:12:34;;;;;;;1.17;1.07;;;10.50;41.80;;;;;;5090637;28;20246;-58
2022/03/12 12:15:26;;;;;;;1.00;0.90;;;10.40;41.60;;;;;;5086645;28;20215;-53
2022/03/12 12:18:12;;;;;;;2.20;1.10;;;10.50;41.90;;;;;;5089926;28;20188;-50
2022/03/12 12:20:56;;;;;;;2.27;0.90;;;10.20;41.80;;;;;;5090970;28;20196;-56
2022/03/12 12:23:40;;;;;;;2.67;1.70;;;10.20;42.00;;;;;;5086507;28;20201;-58
2022/03/12 12:26:25;;;;;;;2.47;1.30;;;10.30;42.80;;;;;;5090958;28;20192;-61
2022/03/12 12:29:09;;;;;;;2.23;1.13;;;10.30;42.20;;;;;;5090436;28;20195;-57
2022/03/12 12:32:03;;;;;;;2.33;1.57;;;10.40;42.60;;;;;;5086871;28;20238;-57
2022/03/12 12:35:02;;;;;;;1.13;1.13;;;10.50;43.30;;;;;;5091314;28;20265;-55
2022/03/12 12:37:58;;;;;;;2.67;1.30;;;10.40;42.70;;;;;;5087989;28;20224;-57
2022/03/12 12:40:48;;;;;;;1.27;1.17;;;10.50;43.30;;;;;;5087393;28;20246;-58
2022/03/12 12:43:37;;;;;;;1.53;1.17;;;10.50;42.40;;;;;;5090361;28;20215;-53
2022/03/12 12:46:22;;;;;;;3.03;0.93;;;10.70;42.50;;;;;;5089795;28;20228;-49
2022/03/12 12:49:07;;;;;;;5.20;3.47;;;10.90;42.60;;;;;;5086414;28;20192;-55
2022/03/12 12:51:52;;;;;;;2.50;1.80;;;10.80;42.10;;;;;;5090227;28;20428;-51
2022/03/12 12:55:02;;;;;;;1.00;1.00;;;10.80;42.40;;;;;;5087298;28;20220;-58
2022/03/12 12:57:48;;;;;;;1.53;1.10;;;10.80;42.10;;;;;;5086365;28;20204;-60
2022/03/12 13:00:39;;;;;;;1.53;1.20;;;11.10;42.30;;;;;;5090270;28;20200;-53
2022/03/12 13:03:23;;;;;;;1.47;1.30;;;11.10;42.00;;;;;;5088467;28;20242;-65
2022/03/12 13:06:08;;;;;;;4.47;1.20;;;11.10;42.00;;;;;;5086783;28;20191;-59
2022/03/12 13:08:52;;;;;;;2.27;1.30;;;11.20;42.00;;;;;;5090499;28;20188;-51
2022/03/12 13:11:45;;;;;;;1.20;1.00;;;11.20;41.90;;;;;;5086110;28;20305;-64
2022/03/12 13:14:51;;;;;;;1.40;1.30;;;11.30;42.30;;;;;;5087552;28;20193;-53
2022/03/12 13:17:36;;;;;;;2.03;1.13;;;11.30;42.00;;;;;;5090435;28;20184;-58
2022/03/12 13:20:42;;;;;;;1.60;1.33;;;11.40;41.80;;;;;;5086661;28;20179;-58
2022/03/12 13:23:30;;;;;;;1.30;1.10;;;11.60;41.90;;;;;;5089404;28;20239;-54
2022/03/12 13:26:19;;;;;;;1.73;1.10;;;11.50;41.80;;;;;;5094399;28;20281;-55
2022/03/12 13:29:09;;;;;;;1.03;0.93;;;11.60;41.30;;;;;;5090320;28;20280;-64
2022/03/12 13:31:56;;;;;;;1.30;1.20;;;11.80;41.60;;;;;;5090628;28;20219;-53
2022/03/12 13:34:41;;;;;;;2.30;1.17;;;11.90;41.80;;;;;;5094125;28;20192;-57
2022/03/12 13:37:25;;;;;;;1.37;1.30;;;12.00;42.30;;;;;;5089261;28;20247;-59
2022/03/12 13:40:13;;;;;;;1.83;1.50;;;12.20;41.60;;;;;;5092116;28;20309;-60
2022/03/12 13:43:05;;;;;;;2.20;1.53;;;12.40;41.20;;;;;;5093329;28;20208;-54
2022/03/12 13:45:59;;;;;;;2.27;1.10;;;12.50;40.80;;;;;;5089196;28;20195;-55
2022/03/12 13:49:10;;;;;;;1.57;1.40;;;12.70;40.50;;;;;;5093078;28;20228;-57
2022/03/12 13:51:56;;;;;;;1.20;1.10;;;14.10;39.80;;;;;;5093506;28;20360;-60
2022/03/12 13:54:40;;;;;;;2.13;1.23;;;16.80;37.30;;;;;;5089292;28;20188;-57
2022/03/12 13:57:27;;;;;;;1.50;1.40;;;18.60;34.70;;;;;;5091629;28;20204;-60
2022/03/12 14:00:16;;;;;;;1.50;1.40;;;18.70;34.30;;;;;;5093049;28;20301;-49
2022/03/12 14:03:01;;;;;;;2.30;1.95;;;20.10;33.40;;;;;;5073537;28;20243;-59
2022/03/12 14:05:45;;;;;;;3.85;2.13;;;21.20;32.60;;;;;;5072093;28;20193;-61
2022/03/12 14:08:30;;;;;;;1.40;1.30;;;22.00;32.20;;;;;;5071586;28;20211;-62
2022/03/12 14:11:57;;;;;;;2.00;1.73;;;22.70;31.60;;;;;;5062627;28;20229;-62
2022/03/12 14:14:41;;;;;;;1.77;1.67;;;21.70;31.40;;;;;;5040861;28;20217;-55
2022/03/12 14:17:27;;;;;;;2.28;1.67;;;21.30;32.00;;;;;;5029850;28;20248;-59
2022/03/12 14:20:12;;;;;;;1.55;1.45;;;22.00;31.50;;;;;;5027038;28;20241;-50
2022/03/12 14:22:57;;;;;;;2.00;1.90;;;22.30;30.60;;;;;;5031323;28;20190;-49
2022/03/12 14:25:41;;;;;;;2.47;1.85;;;22.50;30.90;;;;;;5030064;28;20217;-63
2022/03/12 14:28:26;;;;;;;1.55;1.45;;;23.40;30.00;;;;;;5026926;28;20205;-61
2022/03/12 14:31:10;;;;;;;4.68;2.83;;;23.80;30.00;;;;;;5030625;28;20312;-54
2022/03/12 14:33:55;;;;;;;4.45;1.80;;;22.90;29.20;;;;;;5027898;28;20250;-62